createdAt,value
2018-05-01T00:00:31.834Z,13.68
2018-05-01T00:01:31.851Z,13.71
2018-05-01T00:02:31.877Z,13.71
2018-05-01T00:03:31.907Z,13.72
2018-05-01T00:04:31.921Z,13.71
2018-05-01T00:05:31.955Z,13.72
2018-05-01T00:06:31.971Z,13.73
2018-05-01T00:07:31.997Z,13.66
2018-05-01T00:08:32.030Z,13.73
2018-05-01T00:09:32.037Z,13.75
2018-05-01T00:10:32.066Z,13.79
2018-05-01T00:11:32.086Z,13.75
2018-05-01T00:12:32.131Z,13.76
2018-05-01T00:13:32.130Z,13.75
2018-05-01T00:14:32.156Z,13.76
2018-05-01T00:15:32.185Z,13.90
2018-05-01T00:16:32.207Z,13.84
2018-05-01T00:17:32.229Z,13.79
2018-05-01T00:18:32.246Z,13.87
2018-05-01T00:19:32.270Z,13.93
2018-05-01T00:20:32.297Z,13.86
2018-05-01T00:21:32.315Z,13.87
2018-05-01T00:22:32.339Z,13.84
2018-05-01T00:23:32.366Z,13.84
2018-05-01T00:24:32.386Z,13.91
2018-05-01T00:25:32.410Z,13.99
2018-05-01T00:26:32.439Z,13.98
2018-05-01T00:27:32.459Z,13.91
2018-05-01T00:28:32.484Z,13.94
2018-05-01T00:29:32.504Z,13.99
2018-05-01T00:30:32.525Z,13.90
2018-05-01T00:31:32.550Z,13.86
2018-05-01T00:32:32.577Z,14.01
2018-05-01T00:33:32.595Z,13.99
2018-05-01T00:34:32.626Z,13.99
2018-05-01T00:35:32.644Z,13.93
2018-05-01T00:36:32.680Z,13.94
2018-05-01T00:37:32.689Z,14.06
2018-05-01T00:38:32.716Z,14.04
2018-05-01T00:39:32.739Z,13.98
2018-05-01T00:40:32.762Z,14.02
2018-05-01T00:41:32.787Z,14.04
2018-05-01T00:42:32.809Z,14.04
2018-05-01T00:43:32.835Z,13.99
2018-05-01T00:44:32.858Z,14.11
2018-05-01T00:45:32.883Z,14.08
2018-05-01T00:46:32.898Z,14.09
2018-05-01T00:47:32.925Z,14.04
2018-05-01T00:48:32.949Z,14.08
2018-05-01T00:49:32.974Z,14.06
2018-05-01T00:50:32.995Z,14.06
2018-05-01T00:51:33.047Z,14.05
2018-05-01T00:52:33.048Z,14.01
2018-05-01T00:53:33.064Z,14.04
2018-05-01T00:54:33.088Z,13.98
2018-05-01T00:55:33.114Z,14.01
2018-05-01T00:56:33.143Z,13.99
2018-05-01T00:57:33.159Z,14.08
2018-05-01T00:58:33.181Z,13.99
2018-05-01T00:59:33.209Z,13.98
2018-05-01T01:00:33.244Z,14.02
2018-05-01T01:01:33.255Z,14.04
2018-05-01T01:02:33.280Z,14.04
2018-05-01T01:03:33.304Z,14.06
2018-05-01T01:04:33.324Z,14.05
2018-05-01T01:05:33.348Z,14.05
2018-05-01T01:06:33.371Z,13.90
2018-05-01T01:07:33.401Z,13.87
2018-05-01T01:08:33.424Z,13.91
2018-05-01T01:09:33.443Z,13.84
2018-05-01T01:10:33.465Z,13.81
2018-05-01T01:11:33.488Z,13.81
2018-05-01T01:12:33.517Z,13.76
2018-05-01T01:13:33.538Z,13.80
2018-05-01T01:14:33.559Z,13.79
2018-05-01T01:15:33.583Z,13.80
2018-05-01T01:16:33.611Z,13.79
2018-05-01T01:17:33.637Z,13.76
2018-05-01T01:18:33.651Z,13.80
2018-05-01T01:19:33.682Z,13.75
2018-05-01T01:20:33.706Z,13.83
2018-05-01T01:21:33.726Z,13.87
2018-05-01T01:22:33.748Z,13.80
2018-05-01T01:23:33.771Z,13.73
2018-05-01T01:24:33.796Z,13.88
2018-05-01T01:25:33.817Z,13.81
2018-05-01T01:26:33.845Z,13.75
2018-05-01T01:27:33.872Z,13.79
2018-05-01T01:28:33.952Z,13.73
2018-05-01T01:29:33.912Z,13.72
2018-05-01T01:30:33.938Z,13.80
2018-05-01T01:31:33.957Z,13.76
2018-05-01T01:32:33.983Z,13.86
2018-05-01T01:33:34.005Z,13.68
2018-05-01T01:34:34.027Z,13.69
2018-05-01T01:35:34.052Z,13.53
2018-05-01T01:36:34.077Z,13.51
2018-05-01T01:37:34.097Z,13.61
2018-05-01T01:38:34.122Z,13.47
2018-05-01T01:39:34.146Z,13.22
2018-05-01T01:40:34.173Z,13.25
2018-05-01T01:41:34.203Z,13.09
2018-05-01T01:42:34.220Z,13.03
2018-05-01T01:43:34.251Z,13.01
2018-05-01T01:44:34.263Z,12.96
2018-05-01T01:45:34.287Z,12.94
2018-05-01T01:46:34.310Z,12.96
2018-05-01T01:47:34.337Z,12.94
2018-05-01T01:48:34.357Z,12.92
2018-05-01T01:49:34.377Z,12.89
2018-05-01T01:50:34.399Z,12.84
2018-05-01T01:51:34.425Z,12.92
2018-05-01T01:52:34.448Z,12.88
2018-05-01T01:53:34.475Z,12.85
2018-05-01T01:54:34.492Z,12.79
2018-05-01T01:55:34.519Z,12.77
2018-05-01T01:56:34.537Z,12.69
2018-05-01T01:57:34.562Z,12.79
2018-05-01T01:58:34.593Z,12.76
2018-05-01T01:59:34.610Z,12.71
2018-05-01T02:00:34.632Z,12.74
2018-05-01T02:01:34.651Z,12.66
2018-05-01T02:02:34.671Z,12.67
2018-05-01T02:03:34.701Z,12.66
2018-05-01T02:04:34.721Z,12.70
2018-05-01T02:05:34.744Z,12.67
2018-05-01T02:06:34.770Z,12.67
2018-05-01T02:07:34.789Z,12.73
2018-05-01T02:08:34.824Z,12.59
2018-05-01T02:09:34.832Z,12.70
2018-05-01T02:10:34.862Z,12.71
2018-05-01T02:11:34.876Z,12.73
2018-05-01T02:12:34.901Z,12.66
2018-05-01T02:13:34.923Z,12.66
2018-05-01T02:14:34.949Z,12.76
2018-05-01T02:15:34.970Z,12.73
2018-05-01T02:16:34.991Z,12.69
2018-05-01T02:17:35.012Z,12.56
2018-05-01T02:18:35.035Z,12.58
2018-05-01T02:19:35.069Z,12.46
2018-05-01T02:20:35.091Z,12.48
2018-05-01T02:21:35.109Z,12.58
2018-05-01T02:22:35.130Z,12.59
2018-05-01T02:23:35.156Z,12.52
2018-05-01T02:24:35.175Z,12.49
2018-05-01T02:25:35.190Z,12.54
2018-05-01T02:26:35.214Z,12.58
2018-05-01T02:27:35.257Z,12.62
2018-05-01T02:28:35.265Z,12.55
2018-05-01T02:29:35.280Z,12.52
2018-05-01T02:30:35.310Z,12.40
2018-05-01T02:31:35.326Z,12.49
2018-05-01T02:32:35.355Z,12.49
2018-05-01T02:33:35.383Z,12.59
2018-05-01T02:34:35.398Z,12.62
2018-05-01T02:35:35.415Z,12.66
2018-05-01T02:36:35.442Z,12.70
2018-05-01T02:37:35.461Z,12.54
2018-05-01T02:38:35.490Z,12.48
2018-05-01T02:39:35.505Z,12.48
2018-05-01T02:40:35.535Z,12.51
2018-05-01T02:41:35.553Z,12.44
2018-05-01T02:42:35.574Z,12.40
2018-05-01T02:43:35.594Z,12.36
2018-05-01T02:44:35.624Z,12.43
2018-05-01T02:45:35.640Z,12.36
2018-05-01T02:46:35.664Z,12.31
2018-05-01T02:47:35.685Z,12.37
2018-05-01T02:48:35.709Z,12.33
2018-05-01T02:49:35.730Z,12.38
2018-05-01T02:50:35.756Z,12.29
2018-05-01T02:51:35.775Z,12.26
2018-05-01T02:52:35.795Z,12.25
2018-05-01T02:53:35.824Z,12.29
2018-05-01T02:54:35.839Z,12.25
2018-05-01T02:55:35.866Z,12.33
2018-05-01T02:56:35.883Z,12.25
2018-05-01T02:57:35.917Z,12.25
2018-05-01T02:58:35.929Z,12.26
2018-05-01T02:59:35.953Z,12.19
2018-05-01T03:00:35.974Z,12.22
2018-05-01T03:01:36.004Z,12.16
2018-05-01T03:02:36.026Z,12.16
2018-05-01T03:03:36.044Z,12.13
2018-05-01T03:04:36.063Z,12.07
2018-05-01T03:05:36.089Z,11.98
2018-05-01T03:06:36.113Z,12.11
2018-05-01T03:07:36.132Z,12.18
2018-05-01T03:08:36.153Z,12.16
2018-05-01T03:09:36.172Z,12.15
2018-05-01T03:10:36.193Z,12.21
2018-05-01T03:11:36.220Z,12.21
2018-05-01T03:12:36.243Z,12.25
2018-05-01T03:13:36.264Z,12.29
2018-05-01T03:14:36.289Z,12.12
2018-05-01T03:15:36.304Z,12.11
2018-05-01T03:16:36.341Z,12.00
2018-05-01T03:17:36.348Z,12.01
2018-05-01T03:18:36.377Z,12.16
2018-05-01T03:19:36.394Z,12.11
2018-05-01T03:20:36.421Z,12.12
2018-05-01T03:21:36.441Z,12.13
2018-05-01T03:22:36.457Z,12.12
2018-05-01T03:23:36.485Z,12.18
2018-05-01T03:24:36.507Z,12.12
2018-05-01T03:25:36.524Z,12.22
2018-05-01T03:26:36.557Z,12.18
2018-05-01T03:27:36.571Z,12.13
2018-05-01T03:28:36.592Z,12.15
2018-05-01T03:29:36.621Z,12.05
2018-05-01T03:30:36.638Z,11.98
2018-05-01T03:31:36.660Z,12.03
2018-05-01T03:32:36.683Z,11.85
2018-05-01T03:33:36.702Z,11.90
2018-05-01T03:34:36.727Z,11.84
2018-05-01T03:35:36.748Z,12.01
2018-05-01T03:36:36.772Z,11.88
2018-05-01T03:37:36.786Z,12.04
2018-05-01T03:38:36.812Z,12.01
2018-05-01T03:39:36.839Z,12.01
2018-05-01T03:40:36.860Z,12.04
2018-05-01T03:41:36.876Z,11.94
2018-05-01T03:42:36.903Z,11.87
2018-05-01T03:43:36.928Z,11.85
2018-05-01T03:44:36.950Z,11.88
2018-05-01T03:45:36.966Z,11.94
2018-05-01T03:46:36.991Z,12.05
2018-05-01T03:47:37.014Z,12.03
2018-05-01T03:48:37.035Z,12.13
2018-05-01T03:49:37.055Z,12.19
2018-05-01T03:50:37.081Z,12.11
2018-05-01T03:51:37.101Z,12.07
2018-05-01T03:52:37.120Z,12.04
2018-05-01T03:53:37.141Z,12.01
2018-05-01T03:54:37.160Z,12.01
2018-05-01T03:55:37.191Z,11.88
2018-05-01T03:56:37.210Z,12.00
2018-05-01T03:57:37.230Z,11.81
2018-05-01T03:58:37.251Z,11.84
2018-05-01T03:59:37.276Z,11.69
2018-05-01T04:00:37.295Z,11.69
2018-05-01T04:01:37.317Z,11.67
2018-05-01T04:02:37.341Z,11.75
2018-05-01T04:03:37.365Z,11.74
2018-05-01T04:04:37.388Z,11.69
2018-05-01T04:05:37.410Z,11.74
2018-05-01T04:06:37.424Z,11.72
2018-05-01T04:07:37.449Z,11.75
2018-05-01T04:08:37.471Z,11.74
2018-05-01T04:09:37.490Z,11.75
2018-05-01T04:10:37.517Z,11.69
2018-05-01T04:11:37.535Z,11.57
2018-05-01T04:12:37.563Z,11.54
2018-05-01T04:13:37.593Z,11.42
2018-05-01T04:14:37.599Z,11.49
2018-05-01T04:15:37.624Z,11.35
2018-05-01T04:16:37.645Z,11.21
2018-05-01T04:17:37.675Z,11.11
2018-05-01T04:18:37.695Z,11.13
2018-05-01T04:19:37.714Z,11.20
2018-05-01T04:20:37.734Z,11.17
2018-05-01T04:21:37.758Z,11.21
2018-05-01T04:22:37.779Z,11.19
2018-05-01T04:23:37.800Z,11.20
2018-05-01T04:24:37.820Z,11.20
2018-05-01T04:25:37.844Z,11.20
2018-05-01T04:26:37.868Z,11.16
2018-05-01T04:27:37.889Z,11.09
2018-05-01T04:28:37.908Z,11.09
2018-05-01T04:29:37.926Z,11.16
2018-05-01T04:30:37.948Z,11.12
2018-05-01T04:31:37.983Z,11.09
2018-05-01T04:32:37.995Z,10.99
2018-05-01T04:33:38.014Z,11.01
2018-05-01T04:34:38.036Z,11.03
2018-05-01T04:35:38.069Z,10.86
2018-05-01T04:36:38.077Z,10.78
2018-05-01T04:37:38.103Z,10.76
2018-05-01T04:38:38.121Z,10.76
2018-05-01T04:39:38.143Z,10.75
2018-05-01T04:40:38.163Z,10.70
2018-05-01T04:41:38.188Z,10.57
2018-05-01T04:42:38.207Z,10.54
2018-05-01T04:43:38.228Z,10.46
2018-05-01T04:44:38.249Z,10.51
2018-05-01T04:45:38.277Z,10.46
2018-05-01T04:46:38.292Z,10.44
2018-05-01T04:47:38.313Z,10.52
2018-05-01T04:48:38.336Z,10.65
2018-05-01T04:49:38.357Z,10.76
2018-05-01T04:50:38.382Z,10.54
2018-05-01T04:51:38.405Z,10.62
2018-05-01T04:52:38.422Z,10.65
2018-05-01T04:53:38.438Z,10.69
2018-05-01T04:54:38.467Z,10.62
2018-05-01T04:55:38.487Z,10.44
2018-05-01T04:56:38.504Z,10.65
2018-05-01T04:57:38.527Z,10.55
2018-05-01T04:58:38.553Z,10.42
2018-05-01T04:59:38.567Z,10.58
2018-05-01T05:00:38.589Z,10.43
2018-05-01T05:01:38.607Z,10.52
2018-05-01T05:02:38.628Z,10.46
2018-05-01T05:03:38.653Z,10.73
2018-05-01T05:04:38.677Z,10.72
2018-05-01T05:05:38.691Z,10.83
2018-05-01T05:06:38.716Z,10.87
2018-05-01T05:07:38.740Z,10.72
2018-05-01T05:08:38.759Z,10.78
2018-05-01T05:09:38.777Z,10.84
2018-05-01T05:10:38.801Z,10.84
2018-05-01T05:11:38.827Z,10.84
2018-05-01T05:12:38.846Z,10.87
2018-05-01T05:13:38.865Z,10.83
2018-05-01T05:14:38.891Z,10.78
2018-05-01T05:15:38.980Z,10.80
2018-05-01T05:16:38.929Z,10.66
2018-05-01T05:17:38.953Z,10.60
2018-05-01T05:18:38.973Z,10.49
2018-05-01T05:19:38.992Z,10.55
2018-05-01T05:20:39.012Z,10.49
2018-05-01T05:21:39.031Z,10.46
2018-05-01T05:22:39.057Z,10.58
2018-05-01T05:23:39.076Z,10.49
2018-05-01T05:24:39.097Z,10.62
2018-05-01T05:25:39.122Z,10.52
2018-05-01T05:26:39.142Z,10.47
2018-05-01T05:27:39.165Z,10.62
2018-05-01T05:28:39.186Z,10.54
2018-05-01T05:29:39.206Z,10.65
2018-05-01T05:30:39.228Z,10.63
2018-05-01T05:31:39.252Z,10.54
2018-05-01T05:32:39.266Z,10.44
2018-05-01T05:33:39.289Z,10.43
2018-05-01T05:34:39.312Z,10.47
2018-05-01T05:35:39.333Z,10.44
2018-05-01T05:36:39.360Z,10.42
2018-05-01T05:37:39.374Z,10.38
2018-05-01T05:38:39.399Z,10.28
2018-05-01T05:39:39.419Z,10.31
2018-05-01T05:40:39.438Z,10.31
2018-05-01T05:41:39.466Z,10.47
2018-05-01T05:42:39.485Z,10.44
2018-05-01T05:43:39.506Z,10.43
2018-05-01T05:44:39.524Z,10.43
2018-05-01T05:45:39.540Z,10.35
2018-05-01T05:46:39.564Z,10.46
2018-05-01T05:47:39.585Z,10.43
2018-05-01T05:48:39.604Z,10.39
2018-05-01T05:49:39.630Z,10.29
2018-05-01T05:50:39.644Z,10.25
2018-05-01T05:51:39.671Z,10.20
2018-05-01T05:52:39.691Z,10.06
2018-05-01T05:53:39.713Z,10.09
2018-05-01T05:54:39.729Z,10.18
2018-05-01T05:55:39.749Z,10.16
2018-05-01T05:56:39.775Z,10.14
2018-05-01T05:57:39.817Z,10.11
2018-05-01T05:58:39.816Z,10.18
2018-05-01T05:59:39.833Z,10.14
2018-05-01T06:00:39.854Z,10.02
2018-05-01T06:01:39.887Z,9.96
2018-05-01T06:02:39.898Z,9.93
2018-05-01T06:03:39.919Z,9.86
2018-05-01T06:04:39.940Z,9.83
2018-05-01T06:05:39.959Z,9.85
2018-05-01T06:06:39.982Z,9.92
2018-05-01T06:07:40.063Z,10.04
2018-05-01T06:08:40.024Z,9.93
2018-05-01T06:09:40.040Z,9.83
2018-05-01T06:10:40.068Z,9.96
2018-05-01T06:11:40.088Z,10.01
2018-05-01T06:12:40.108Z,9.85
2018-05-01T06:13:40.136Z,9.98
2018-05-01T06:14:40.163Z,9.86
2018-05-01T06:15:40.163Z,9.81
2018-05-01T06:16:40.192Z,9.75
2018-05-01T06:17:40.249Z,9.78
2018-05-01T06:18:40.228Z,9.73
2018-05-01T06:19:40.250Z,9.91
2018-05-01T06:20:40.271Z,9.93
2018-05-01T06:21:40.289Z,9.85
2018-05-01T06:22:40.309Z,9.78
2018-05-01T06:23:40.332Z,9.85
2018-05-01T06:24:40.349Z,9.78
2018-05-01T06:25:40.369Z,9.68
2018-05-01T06:26:40.389Z,9.62
2018-05-01T06:27:40.412Z,9.63
2018-05-01T06:28:40.434Z,9.68
2018-05-01T06:29:40.453Z,9.75
2018-05-01T06:30:40.473Z,9.86
2018-05-01T06:31:40.493Z,9.59
2018-05-01T06:32:40.512Z,9.53
2018-05-01T06:33:40.533Z,9.65
2018-05-01T06:34:40.549Z,9.70
2018-05-01T06:35:40.577Z,9.49
2018-05-01T06:36:40.597Z,9.60
2018-05-01T06:37:40.613Z,9.55
2018-05-01T06:38:40.633Z,9.67
2018-05-01T06:39:40.652Z,9.62
2018-05-01T06:40:40.674Z,9.70
2018-05-01T06:41:40.693Z,9.80
2018-05-01T06:42:40.726Z,9.70
2018-05-01T06:43:40.742Z,9.62
2018-05-01T06:44:40.755Z,9.65
2018-05-01T06:45:40.782Z,9.62
2018-05-01T06:46:40.792Z,9.62
2018-05-01T06:47:40.830Z,9.48
2018-05-01T06:48:40.839Z,9.41
2018-05-01T06:49:40.859Z,9.38
2018-05-01T06:50:40.936Z,9.35
2018-05-01T06:51:40.898Z,9.40
2018-05-01T06:52:40.920Z,9.32
2018-05-01T06:53:40.942Z,9.40
2018-05-01T06:54:40.959Z,9.44
2018-05-01T06:55:40.972Z,9.37
2018-05-01T06:56:40.997Z,9.41
2018-05-01T06:57:41.076Z,9.41
2018-05-01T06:58:41.038Z,9.44
2018-05-01T06:59:41.057Z,9.41
2018-05-01T07:00:41.078Z,9.48
2018-05-01T07:01:41.097Z,9.45
2018-05-01T07:02:41.120Z,9.31
2018-05-01T07:03:41.137Z,9.30
2018-05-01T07:04:41.250Z,9.38
2018-05-01T07:05:41.177Z,9.27
2018-05-01T07:06:41.197Z,9.35
2018-05-01T07:07:41.217Z,9.35
2018-05-01T07:08:41.240Z,9.34
2018-05-01T07:09:41.256Z,9.35
2018-05-01T07:10:41.276Z,9.26
2018-05-01T07:11:41.374Z,9.20
2018-05-01T07:12:41.312Z,9.22
2018-05-01T07:13:41.340Z,9.13
2018-05-01T07:14:41.352Z,9.22
2018-05-01T07:15:41.371Z,9.20
2018-05-01T07:16:41.397Z,9.13
2018-05-01T07:17:41.413Z,9.23
2018-05-01T07:18:41.443Z,9.13
2018-05-01T07:19:41.451Z,9.15
2018-05-01T07:20:41.487Z,9.16
2018-05-01T07:21:41.496Z,9.23
2018-05-01T07:22:41.509Z,9.04
2018-05-01T07:23:41.531Z,9.15
2018-05-01T07:24:41.551Z,9.13
2018-05-01T07:25:41.583Z,9.26
2018-05-01T07:26:41.592Z,9.17
2018-05-01T07:27:41.611Z,9.17
2018-05-01T07:28:41.630Z,9.12
2018-05-01T07:29:41.659Z,9.04
2018-05-01T07:30:41.674Z,9.17
2018-05-01T07:31:41.691Z,9.12
2018-05-01T07:32:41.712Z,9.01
2018-05-01T07:33:41.733Z,8.93
2018-05-01T07:34:41.749Z,8.83
2018-05-01T07:35:41.770Z,8.96
2018-05-01T07:36:41.784Z,8.97
2018-05-01T07:37:41.810Z,8.94
2018-05-01T07:38:41.830Z,8.86
2018-05-01T07:39:41.845Z,8.88
2018-05-01T07:40:41.869Z,8.93
2018-05-01T07:41:41.900Z,8.97
2018-05-01T07:42:41.904Z,8.89
2018-05-01T07:43:41.927Z,8.96
2018-05-01T07:44:41.944Z,9.03
2018-05-01T07:45:41.960Z,8.93
2018-05-01T07:46:41.980Z,8.96
2018-05-01T07:47:42.002Z,9.00
2018-05-01T07:48:42.018Z,8.93
2018-05-01T07:49:42.041Z,8.80
2018-05-01T07:50:42.063Z,8.83
2018-05-01T07:51:42.082Z,8.86
2018-05-01T07:52:42.099Z,8.98
2018-05-01T07:53:42.118Z,8.85
2018-05-01T07:54:42.134Z,8.86
2018-05-01T07:55:42.154Z,8.89
2018-05-01T07:56:42.192Z,8.83
2018-05-01T07:57:42.197Z,8.80
2018-05-01T07:58:42.224Z,8.86
2018-05-01T07:59:42.236Z,8.88
2018-05-01T08:00:42.258Z,8.88
2018-05-01T08:01:42.275Z,8.88
2018-05-01T08:02:42.294Z,8.85
2018-05-01T08:03:42.313Z,8.91
2018-05-01T08:04:42.332Z,8.93
2018-05-01T08:05:42.354Z,8.86
2018-05-01T08:06:42.375Z,8.83
2018-05-01T08:07:42.387Z,8.79
2018-05-01T08:08:42.412Z,8.80
2018-05-01T08:09:42.429Z,8.83
2018-05-01T08:10:42.449Z,8.83
2018-05-01T08:11:42.471Z,8.86
2018-05-01T08:12:42.487Z,8.93
2018-05-01T08:13:42.505Z,8.96
2018-05-01T08:14:42.531Z,8.86
2018-05-01T08:15:42.542Z,8.85
2018-05-01T08:16:42.563Z,8.96
2018-05-01T08:17:42.583Z,8.94
2018-05-01T08:18:42.630Z,9.00
2018-05-01T08:19:42.628Z,8.96
2018-05-01T08:20:42.651Z,8.96
2018-05-01T08:21:42.667Z,8.93
2018-05-01T08:22:42.681Z,9.01
2018-05-01T08:23:42.754Z,9.12
2018-05-01T08:24:42.727Z,9.00
2018-05-01T08:25:42.737Z,8.94
2018-05-01T08:26:42.757Z,9.10
2018-05-01T08:27:42.779Z,8.98
2018-05-01T08:28:42.798Z,8.85
2018-05-01T08:29:42.813Z,8.88
2018-05-01T08:30:42.836Z,9.04
2018-05-01T08:31:42.861Z,9.12
2018-05-01T08:32:42.877Z,8.89
2018-05-01T08:33:42.896Z,8.86
2018-05-01T08:34:42.912Z,8.89
2018-05-01T08:35:42.933Z,8.91
2018-05-01T08:36:42.955Z,9.00
2018-05-01T08:37:43.064Z,8.86
2018-05-01T08:38:42.990Z,8.98
2018-05-01T08:39:43.006Z,9.04
2018-05-01T08:40:43.032Z,9.00
2018-05-01T08:41:43.052Z,9.06
2018-05-01T08:42:43.066Z,9.04
2018-05-01T08:43:43.087Z,9.04
2018-05-01T08:44:43.110Z,8.93
2018-05-01T08:45:43.133Z,8.96
2018-05-01T08:46:43.146Z,8.91
2018-05-01T08:47:43.171Z,8.96
2018-05-01T08:48:43.182Z,8.98
2018-05-01T08:49:43.201Z,8.88
2018-05-01T08:50:43.221Z,8.91
2018-05-01T08:51:43.242Z,8.94
2018-05-01T08:52:43.261Z,8.91
2018-05-01T08:53:43.276Z,8.93
2018-05-01T08:54:43.296Z,8.85
2018-05-01T08:55:43.321Z,8.83
2018-05-01T08:56:43.337Z,8.83
2018-05-01T08:57:43.363Z,8.93
2018-05-01T08:58:43.387Z,8.85
2018-05-01T08:59:43.395Z,8.94
2018-05-01T09:00:43.417Z,8.88
2018-05-01T09:01:43.435Z,8.94
2018-05-01T09:02:43.456Z,8.94
2018-05-01T09:03:43.474Z,8.96
2018-05-01T09:04:43.490Z,8.86
2018-05-01T09:05:43.510Z,8.86
2018-05-01T09:06:43.531Z,8.98
2018-05-01T09:07:43.551Z,8.86
2018-05-01T09:08:43.568Z,8.85
2018-05-01T09:09:43.586Z,8.93
2018-05-01T09:10:43.605Z,8.89
2018-05-01T09:11:43.624Z,8.80
2018-05-01T09:12:43.646Z,8.79
2018-05-01T09:13:43.665Z,8.83
2018-05-01T09:14:43.685Z,8.83
2018-05-01T09:15:43.703Z,8.80
2018-05-01T09:16:43.726Z,8.80
2018-05-01T09:17:43.833Z,8.86
2018-05-01T09:18:43.766Z,8.88
2018-05-01T09:19:43.777Z,8.98
2018-05-01T09:20:43.797Z,8.91
2018-05-01T09:21:43.814Z,8.79
2018-05-01T09:22:43.836Z,8.86
2018-05-01T09:23:43.855Z,8.76
2018-05-01T09:24:43.876Z,8.71
2018-05-01T09:25:43.891Z,8.82
2018-05-01T09:26:43.911Z,8.85
2018-05-01T09:27:43.932Z,8.80
2018-05-01T09:28:43.952Z,8.83
2018-05-01T09:29:43.972Z,8.86
2018-05-01T09:30:43.992Z,8.88
2018-05-01T09:31:44.013Z,8.82
2018-05-01T09:32:44.026Z,8.85
2018-05-01T09:33:44.043Z,8.79
2018-05-01T09:34:44.070Z,8.80
2018-05-01T09:35:44.090Z,8.80
2018-05-01T09:36:44.104Z,8.82
2018-05-01T09:37:44.124Z,8.83
2018-05-01T09:38:44.141Z,8.83
2018-05-01T09:39:44.162Z,8.71
2018-05-01T09:40:44.178Z,8.76
2018-05-01T09:41:44.199Z,8.73
2018-05-01T09:42:44.215Z,8.75
2018-05-01T09:43:44.237Z,8.61
2018-05-01T09:44:44.255Z,8.67
2018-05-01T09:45:44.273Z,8.61
2018-05-01T09:46:44.298Z,8.70
2018-05-01T09:47:44.310Z,8.73
2018-05-01T09:48:44.332Z,8.71
2018-05-01T09:49:44.352Z,8.80
2018-05-01T09:50:44.369Z,8.97
2018-05-01T09:51:44.388Z,8.93
2018-05-01T09:52:44.405Z,8.91
2018-05-01T09:53:44.432Z,8.89
2018-05-01T09:54:44.446Z,8.85
2018-05-01T09:55:44.466Z,8.80
2018-05-01T09:56:44.487Z,8.86
2018-05-01T09:57:44.498Z,8.89
2018-05-01T09:58:44.523Z,8.82
2018-05-01T09:59:44.543Z,8.82
2018-05-01T10:00:44.568Z,8.86
2018-05-01T10:01:44.589Z,8.83
2018-05-01T10:02:44.603Z,8.93
2018-05-01T10:03:44.621Z,8.91
2018-05-01T10:04:44.637Z,8.96
2018-05-01T10:05:44.659Z,8.85
2018-05-01T10:06:44.683Z,8.85
2018-05-01T10:07:44.693Z,8.97
2018-05-01T10:08:44.715Z,8.96
2018-05-01T10:09:44.728Z,9.04
2018-05-01T10:10:44.754Z,8.89
2018-05-01T10:11:44.777Z,9.00
2018-05-01T10:12:44.787Z,8.96
2018-05-01T10:13:44.811Z,9.01
2018-05-01T10:14:44.827Z,8.94
2018-05-01T10:15:44.857Z,9.08
2018-05-01T10:16:44.872Z,9.06
2018-05-01T10:17:44.892Z,8.93
2018-05-01T10:18:44.911Z,8.98
2018-05-01T10:19:44.927Z,9.03
2018-05-01T10:20:44.946Z,9.06
2018-05-01T10:21:44.962Z,9.16
2018-05-01T10:22:44.977Z,9.06
2018-05-01T10:23:45.003Z,9.01
2018-05-01T10:24:45.018Z,9.15
2018-05-01T10:25:45.038Z,9.10
2018-05-01T10:26:45.062Z,9.13
2018-05-01T10:27:45.081Z,9.20
2018-05-01T10:28:45.130Z,9.13
2018-05-01T10:29:45.112Z,9.13
2018-05-01T10:30:45.133Z,9.17
2018-05-01T10:31:45.153Z,9.13
2018-05-01T10:32:45.179Z,9.13
2018-05-01T10:33:45.197Z,9.04
2018-05-01T10:34:45.216Z,9.30
2018-05-01T10:35:45.227Z,9.24
2018-05-01T10:36:45.252Z,9.23
2018-05-01T10:37:45.267Z,9.27
2018-05-01T10:38:45.342Z,9.24
2018-05-01T10:39:45.307Z,9.23
2018-05-01T10:40:45.340Z,9.38
2018-05-01T10:41:45.344Z,9.34
2018-05-01T10:42:45.375Z,9.30
2018-05-01T10:43:45.382Z,9.40
2018-05-01T10:44:45.407Z,9.32
2018-05-01T10:45:45.531Z,9.38
2018-05-01T10:46:45.446Z,9.32
2018-05-01T10:47:45.464Z,9.40
2018-05-01T10:48:45.481Z,9.41
2018-05-01T10:49:45.501Z,9.44
2018-05-01T10:50:45.527Z,9.40
2018-05-01T10:51:45.535Z,9.37
2018-05-01T10:52:45.556Z,9.37
2018-05-01T10:53:45.582Z,9.37
2018-05-01T10:54:45.625Z,9.40
2018-05-01T10:55:45.616Z,9.49
2018-05-01T10:56:45.636Z,9.52
2018-05-01T10:57:45.655Z,9.48
2018-05-01T10:58:45.673Z,9.50
2018-05-01T10:59:45.702Z,9.59
2018-05-01T11:00:45.719Z,9.59
2018-05-01T11:01:45.729Z,9.68
2018-05-01T11:02:45.749Z,9.71
2018-05-01T11:03:45.770Z,9.68
2018-05-01T11:04:45.791Z,9.70
2018-05-01T11:05:45.818Z,9.70
2018-05-01T11:06:45.839Z,9.70
2018-05-01T11:07:45.857Z,9.75
2018-05-01T11:08:45.869Z,9.81
2018-05-01T11:09:45.890Z,9.81
2018-05-01T11:10:45.910Z,9.80
2018-05-01T11:11:45.929Z,9.85
2018-05-01T11:12:45.957Z,9.78
2018-05-01T11:13:45.969Z,9.81
2018-05-01T11:14:45.988Z,9.77
2018-05-01T11:15:46.016Z,9.86
2018-05-01T11:16:46.029Z,9.75
2018-05-01T11:17:46.050Z,9.91
2018-05-01T11:18:46.077Z,9.80
2018-05-01T11:19:46.090Z,9.81
2018-05-01T11:20:46.112Z,9.81
2018-05-01T11:21:46.133Z,9.89
2018-05-01T11:22:46.157Z,9.92
2018-05-01T11:23:46.164Z,10.01
2018-05-01T11:24:46.233Z,9.91
2018-05-01T11:25:46.213Z,9.99
2018-05-01T11:26:46.229Z,9.83
2018-05-01T11:27:46.266Z,9.80
2018-05-01T11:28:46.274Z,9.89
2018-05-01T11:29:46.290Z,9.93
2018-05-01T11:30:46.320Z,9.80
2018-05-01T11:31:46.330Z,9.74
2018-05-01T11:32:46.353Z,9.74
2018-05-01T11:33:46.373Z,9.89
2018-05-01T11:34:46.390Z,9.88
2018-05-01T11:35:46.408Z,9.85
2018-05-01T11:36:46.428Z,9.93
2018-05-01T11:37:46.454Z,9.98
2018-05-01T11:38:46.468Z,10.01
2018-05-01T11:39:46.489Z,9.95
2018-05-01T11:40:46.510Z,10.11
2018-05-01T11:41:46.531Z,9.99
2018-05-01T11:42:46.552Z,10.07
2018-05-01T11:43:46.569Z,10.02
2018-05-01T11:44:46.592Z,9.98
2018-05-01T11:45:46.618Z,10.10
2018-05-01T11:46:46.630Z,10.10
2018-05-01T11:47:46.658Z,10.11
2018-05-01T11:48:46.674Z,10.18
2018-05-01T11:49:46.690Z,10.11
2018-05-01T11:50:46.715Z,10.14
2018-05-01T11:51:46.733Z,10.14
2018-05-01T11:52:46.755Z,10.16
2018-05-01T11:53:46.829Z,10.16
2018-05-01T11:54:46.794Z,10.17
2018-05-01T11:55:46.813Z,10.13
2018-05-01T11:56:46.842Z,10.24
2018-05-01T11:57:46.853Z,10.24
2018-05-01T11:58:46.884Z,10.36
2018-05-01T11:59:46.892Z,10.20
2018-05-01T12:00:46.916Z,10.18
2018-05-01T12:01:46.933Z,10.24
2018-05-01T12:02:46.961Z,10.13
2018-05-01T12:03:46.977Z,10.34
2018-05-01T12:04:46.998Z,10.39
2018-05-01T12:05:47.017Z,10.31
2018-05-01T12:06:47.038Z,10.31
2018-05-01T12:07:47.062Z,10.47
2018-05-01T12:08:47.083Z,10.43
2018-05-01T12:09:47.098Z,10.38
2018-05-01T12:10:47.119Z,10.38
2018-05-01T12:11:47.141Z,10.44
2018-05-01T12:12:47.158Z,10.55
2018-05-01T12:13:47.182Z,10.52
2018-05-01T12:14:47.203Z,10.66
2018-05-01T12:15:47.226Z,10.62
2018-05-01T12:16:47.243Z,10.62
2018-05-01T12:17:47.262Z,10.68
2018-05-01T12:18:47.282Z,10.73
2018-05-01T12:19:47.303Z,10.75
2018-05-01T12:20:47.327Z,10.52
2018-05-01T12:21:47.350Z,10.47
2018-05-01T12:22:47.376Z,10.47
2018-05-01T12:23:47.488Z,10.52
2018-05-01T12:24:47.411Z,10.36
2018-05-01T12:25:47.432Z,10.43
2018-05-01T12:26:47.452Z,10.32
2018-05-01T12:27:47.473Z,10.31
2018-05-01T12:28:47.493Z,10.32
2018-05-01T12:29:47.511Z,10.36
2018-05-01T12:30:47.532Z,10.43
2018-05-01T12:31:47.552Z,10.47
2018-05-01T12:32:47.579Z,10.55
2018-05-01T12:33:47.595Z,10.57
2018-05-01T12:34:47.620Z,10.62
2018-05-01T12:35:47.637Z,10.52
2018-05-01T12:36:47.682Z,10.75
2018-05-01T12:37:47.676Z,10.66
2018-05-01T12:38:47.697Z,10.76
2018-05-01T12:39:47.715Z,10.69
2018-05-01T12:40:47.752Z,10.72
2018-05-01T12:41:47.758Z,10.72
2018-05-01T12:42:47.781Z,10.81
2018-05-01T12:43:47.804Z,10.76
2018-05-01T12:44:47.825Z,10.73
2018-05-01T12:45:47.842Z,10.66
2018-05-01T12:46:47.864Z,10.58
2018-05-01T12:47:47.885Z,10.57
2018-05-01T12:48:47.905Z,10.49
2018-05-01T12:49:47.928Z,10.52
2018-05-01T12:50:47.945Z,10.65
2018-05-01T12:51:47.974Z,10.86
2018-05-01T12:52:47.990Z,10.86
2018-05-01T12:53:48.012Z,10.76
2018-05-01T12:54:48.032Z,10.80
2018-05-01T12:55:48.055Z,10.62
2018-05-01T12:56:48.070Z,10.75
2018-05-01T12:57:48.097Z,10.72
2018-05-01T12:58:48.114Z,10.65
2018-05-01T12:59:48.136Z,10.62
2018-05-01T13:00:48.155Z,10.58
2018-05-01T13:01:48.181Z,10.44
2018-05-01T13:02:48.201Z,10.51
2018-05-01T13:03:48.220Z,10.46